Time;durP1;ratioP1;P1;durP2;ratioP2;P2;SDS_P1;SDS_P2;PMS_P1;PMS_P2;Temp;Humidity;BMP_temperature;BMP_pressure;BME280_temperature;BME280_humidity;BME280_pressure;Samples;Min_cycle;Max_cycle;Signal;HPM_P1;HPM_P2
2023/03/20 00:01:13;;;;;;;100.07;40.65;;;;;;;-144.73;100.00;54436.44;4982654;28;20045;-74
2023/03/20 00:03:38;;;;;;;88.70;38.85;;;;;;;-144.73;100.00;54442.59;4974240;28;20030;-74
2023/03/20 00:06:04;;;;;;;106.10;42.08;;;;;;;-144.73;100.00;54473.38;4990333;28;20061;-74
2023/03/20 00:08:31;;;;;;;113.40;43.63;;;;;;;-144.73;100.00;54448.75;4991217;28;20046;-74
2023/03/20 00:10:57;;;;;;;109.82;43.38;;;;;;;-144.73;100.00;54444.66;5002460;28;20128;-74
2023/03/20 00:13:27;;;;;;;110.65;44.92;;;;;;;-144.73;100.00;54452.84;5010991;28;20064;-74
2023/03/20 00:15:53;;;;;;;95.05;39.65;;;;;;;-144.73;100.00;54440.53;5000006;28;20018;-74
2023/03/20 00:18:21;;;;;;;115.65;44.63;;;;;;;-144.73;100.00;54469.28;5003967;28;20072;-74
2023/03/20 00:20:49;;;;;;;118.28;46.60;;;;;;;-144.73;100.00;54473.38;4984686;28;20039;-74
2023/03/20 00:23:15;;;;;;;124.85;46.97;;;;;;;-144.73;100.00;54442.59;4993032;28;20034;-74
2023/03/20 00:25:42;;;;;;;124.80;46.97;;;;;;;-144.73;100.00;54485.69;5001585;28;20026;-74
2023/03/20 00:28:43;;;;;;;123.43;47.50;;;;;;;-144.73;100.00;54469.28;4981586;28;20121;-74
2023/03/20 00:31:27;;;;;;;126.17;49.50;;;;;;;-144.73;100.00;54436.44;4995896;28;20121;-74
2023/03/20 00:33:56;;;;;;;117.72;45.28;;;;;;;-144.73;100.00;54465.16;4991250;28;20061;-74
2023/03/20 00:36:22;;;;;;;129.02;47.75;;;;;;;-144.73;100.00;54461.06;5004654;28;20104;-74
2023/03/20 00:38:47;;;;;;;122.82;47.95;;;;;;;-144.73;100.00;54450.81;4976921;28;20030;-73
2023/03/20 00:41:24;;;;;;;127.68;47.42;;;;;;;-144.73;100.00;54469.28;5001622;28;20032;-74
2023/03/20 00:43:54;;;;;;;117.13;43.15;;;;;;;-144.73;100.00;54444.66;4996400;28;20037;-74
2023/03/20 00:46:20;;;;;;;114.78;44.80;;;;;;;-144.73;100.00;54420.00;4997123;28;20026;-74
2023/03/20 00:48:46;;;;;;;106.88;43.05;;;;;;;-144.73;100.00;54444.66;4996557;28;20030;-74
2023/03/20 00:51:12;;;;;;;119.28;43.80;;;;;;;-144.73;100.00;54450.81;5013324;28;20029;-74
2023/03/20 00:53:37;;;;;;;125.57;47.85;;;;;;;-144.73;100.00;54481.59;5005252;28;20034;-74
2023/03/20 00:56:03;;;;;;;125.25;47.13;;;;;;;-144.73;100.00;54489.81;4993525;28;20538;-74
2023/03/20 00:58:29;;;;;;;122.35;47.78;;;;;;;-144.73;100.00;54481.59;5001376;28;20430;-74
2023/03/20 01:00:55;;;;;;;127.65;50.42;;;;;;;-144.73;100.00;54456.97;5002741;28;20038;-74
2023/03/20 01:03:23;;;;;;;126.85;49.30;;;;;;;-144.73;100.00;54452.84;4984863;28;20023;-74
2023/03/20 01:05:49;;;;;;;128.82;46.55;;;;;;;-144.73;100.00;54477.47;4986408;28;20105;-73
2023/03/20 01:08:23;;;;;;;136.40;50.22;;;;;;;-144.73;100.00;54440.53;4988436;28;20088;-74
2023/03/20 01:10:52;;;;;;;121.55;45.75;;;;;;;-144.73;100.00;54432.31;4988227;28;20072;-74
2023/03/20 01:13:25;;;;;;;135.98;51.78;;;;;;;-144.73;100.00;54448.75;4996176;28;20050;-74
2023/03/20 01:15:52;;;;;;;126.47;46.05;;;;;;;-144.73;100.00;54469.28;4978760;28;20030;-74
2023/03/20 01:18:20;;;;;;;114.47;43.42;;;;;;;-144.73;100.00;54448.75;4997783;28;20029;-74
2023/03/20 01:20:46;;;;;;;120.22;46.95;;;;;;;-144.73;100.00;54424.13;4988075;28;20039;-74
2023/03/20 01:23:13;;;;;;;118.03;46.47;;;;;;;-144.73;100.00;54461.06;4988926;28;20402;-74
2023/03/20 01:25:39;;;;;;;128.88;49.70;;;;;;;-144.73;100.00;54493.91;4996372;28;20052;-74
2023/03/20 01:28:13;;;;;;;117.05;46.28;;;;;;;-144.73;100.00;54469.28;5001068;28;20102;-74
2023/03/20 01:30:38;;;;;;;127.50;46.63;;;;;;;-144.73;100.00;54432.31;4984025;28;20081;-75
2023/03/20 01:33:16;;;;;;;118.20;46.78;;;;;;;-144.73;100.00;54461.06;4993140;28;20069;-74
2023/03/20 01:35:46;;;;;;;118.70;45.78;;;;;;;-144.73;100.00;54461.06;4985044;28;20399;-75
2023/03/20 01:38:24;;;;;;;114.28;45.97;;;;;;;-144.73;100.00;54452.84;4995402;28;20092;-75
2023/03/20 01:41:02;;;;;;;108.40;42.92;;;;;;;-144.73;100.00;54436.44;5012959;28;20096;-75
2023/03/20 01:43:28;;;;;;;114.47;43.40;;;;;;;-144.73;100.00;54417.97;4987271;28;20034;-75
2023/03/20 01:46:00;;;;;;;115.35;45.13;;;;;;;-144.73;100.00;54440.53;4995329;28;20029;-74
2023/03/20 01:48:52;;;;;;;111.57;45.88;;;;;;;-144.73;100.00;54469.28;4994838;28;20033;-75
2023/03/20 01:51:22;;;;;;;121.97;47.38;;;;;;;-144.73;100.00;54479.53;4988618;28;20022;-75
2023/03/20 01:53:53;;;;;;;117.53;46.22;;;;;;;-144.73;100.00;54469.28;5000723;28;20034;-75
2023/03/20 01:56:19;;;;;;;113.68;46.53;;;;;;;-144.73;100.00;54444.66;4995900;28;20025;-75
2023/03/20 01:58:49;;;;;;;120.95;45.65;;;;;;;-144.73;100.00;54459.00;4987479;28;20030;-75
2023/03/20 02:01:15;;;;;;;117.82;46.42;;;;;;;-144.73;100.00;54502.13;4984302;28;20372;-75
2023/03/20 02:03:45;;;;;;;117.38;45.10;;;;;;;-144.73;100.00;54469.28;4999524;28;20038;-74
2023/03/20 02:06:11;;;;;;;121.38;45.58;;;;;;;-144.73;100.00;54473.38;5004120;28;20029;-74
2023/03/20 02:08:44;;;;;;;134.70;48.10;;;;;;;-144.73;100.00;54465.16;5004175;28;20036;-75
2023/03/20 02:11:10;;;;;;;127.47;48.90;;;;;;;-144.73;100.00;54456.97;4995535;28;20034;-75
2023/03/20 02:13:36;;;;;;;124.88;47.40;;;;;;;-144.73;100.00;54444.66;4995170;28;20030;-75
2023/03/20 02:16:10;;;;;;;133.25;48.03;;;;;;;-144.73;100.00;54469.28;4995425;28;20029;-75
2023/03/20 02:18:36;;;;;;;149.65;51.88;;;;;;;-144.73;100.00;54452.84;5011378;28;20058;-75
2023/03/20 02:21:10;;;;;;;152.05;50.55;;;;;;;-144.73;100.00;54502.13;4984936;28;20058;-75
2023/03/20 02:24:14;;;;;;;158.82;52.33;;;;;;;-144.73;100.00;54444.66;4992883;28;20030;-75
2023/03/20 02:27:08;;;;;;;140.40;46.22;;;;;;;-144.73;100.00;54440.53;4975733;28;20030;-75
2023/03/20 02:30:00;;;;;;;143.57;46.50;;;;;;;-144.73;100.00;54444.66;4989813;28;20046;-75
2023/03/20 02:32:58;;;;;;;158.93;48.38;;;;;;;-144.73;100.00;54452.84;4980159;28;20041;-75
2023/03/20 02:35:54;;;;;;;142.18;43.35;;;;;;;-144.73;100.00;54473.38;5004794;28;20076;-75
2023/03/20 02:38:47;;;;;;;154.63;47.03;;;;;;;-144.73;100.00;54442.59;5007029;28;20107;-76
2023/03/20 02:41:43;;;;;;;136.25;43.20;;;;;;;-144.73;100.00;54461.06;4995155;28;20033;-75
2023/03/20 02:44:17;;;;;;;142.00;44.17;;;;;;;-144.73;100.00;54469.28;5003598;28;20056;-75
2023/03/20 02:46:50;;;;;;;122.88;43.40;;;;;;;-144.73;100.00;54432.31;5012228;28;20076;-75
2023/03/20 02:49:26;;;;;;;160.02;48.95;;;;;;;-144.73;100.00;54473.38;5003791;28;20117;-75
2023/03/20 02:52:09;;;;;;;136.85;45.90;;;;;;;-144.73;100.00;54442.59;4991345;28;20104;-75
2023/03/20 02:55:00;;;;;;;151.85;46.13;;;;;;;-144.73;100.00;54475.44;4974980;28;20042;-75
2023/03/20 02:57:46;;;;;;;132.65;45.55;;;;;;;-144.73;100.00;54440.53;4987296;28;20033;-75
2023/03/20 03:00:21;;;;;;;119.18;39.15;;;;;;;-144.73;100.00;54473.38;4983109;28;20034;-75
2023/03/20 03:02:57;;;;;;;120.65;39.90;;;;;;;-144.73;100.00;54450.81;4990423;28;20109;-75
2023/03/20 03:05:34;;;;;;;121.72;40.83;;;;;;;-144.73;100.00;54481.59;4986601;28;20025;-75
2023/03/20 03:08:03;;;;;;;101.18;36.25;;;;;;;-144.73;100.00;54444.66;5001710;28;20038;-74
2023/03/20 03:10:36;;;;;;;89.13;30.98;;;;;;;-144.73;100.00;54506.22;4986299;28;20391;-74
2023/03/20 03:13:06;;;;;;;85.20;28.33;;;;;;;-144.73;100.00;54444.66;4993815;28;20053;-74
2023/03/20 03:15:37;;;;;;;83.75;29.85;;;;;;;-144.73;100.00;54477.47;5003867;28;20029;-75
2023/03/20 03:18:05;;;;;;;76.13;27.33;;;;;;;-144.73;100.00;54444.66;5009376;28;20041;-74
2023/03/20 03:20:37;;;;;;;73.28;27.40;;;;;;;-144.73;100.00;54448.75;4980185;28;20029;-74
2023/03/20 03:23:04;;;;;;;75.78;28.88;;;;;;;-144.73;100.00;54452.84;5009364;28;20065;-74
2023/03/20 03:25:34;;;;;;;77.60;26.30;;;;;;;-144.73;100.00;54444.66;5004468;28;20029;-74
2023/03/20 03:28:06;;;;;;;78.15;26.27;;;;;;;-144.73;100.00;54477.47;5009791;28;20038;-74
2023/03/20 03:30:36;;;;;;;75.85;24.45;;;;;;;-144.73;100.00;54477.47;4993931;28;20021;-74
2023/03/20 03:33:08;;;;;;;71.57;25.17;;;;;;;-144.73;100.00;54489.81;5001906;23;20049;-72
2023/03/20 03:35:34;;;;;;;79.82;27.45;;;;;;;-144.73;100.00;54456.97;4987340;28;20085;-72
2023/03/20 03:38:08;;;;;;;70.30;24.40;;;;;;;-144.73;100.00;54465.16;5006927;28;20457;-73
2023/03/20 03:41:14;;;;;;;65.90;23.23;;;;;;;-144.73;100.00;54461.06;4997570;28;20113;-72
2023/03/20 03:43:45;;;;;;;62.80;21.48;;;;;;;-144.73;100.00;54491.84;4976966;28;20042;-72
2023/03/20 03:46:32;;;;;;;64.25;22.98;;;;;;;-144.73;100.00;54493.91;4973620;28;20257;-73
2023/03/20 03:49:00;;;;;;;56.15;19.70;;;;;;;-144.73;100.00;54481.59;4979740;28;20041;-72
2023/03/20 03:51:30;;;;;;;57.63;20.95;;;;;;;-144.73;100.00;54456.97;4980697;28;20387;-72
2023/03/20 03:54:02;;;;;;;54.72;19.67;;;;;;;-144.73;100.00;54502.13;4954990;28;20043;-73
2023/03/20 03:56:31;;;;;;;59.50;22.15;;;;;;;-144.73;100.00;54479.53;4986899;28;20491;-72
2023/03/20 03:59:04;;;;;;;45.08;20.02;;;;;;;-144.73;100.00;54489.81;4980022;28;20030;-72
2023/03/20 04:01:34;;;;;;;46.22;18.30;;;;;;;-144.73;100.00;54469.28;4973259;28;20037;-72
2023/03/20 04:04:08;;;;;;;45.60;19.15;;;;;;;-144.73;100.00;54481.59;4990283;28;20035;-73
2023/03/20 04:06:34;;;;;;;53.70;19.90;;;;;;;-144.73;100.00;54477.47;4964032;28;20023;-73
2023/03/20 04:08:59;;;;;;;46.92;19.63;;;;;;;-144.73;100.00;54452.84;4987429;28;20101;-73
2023/03/20 04:11:27;;;;;;;49.20;19.23;;;;;;;-144.73;100.00;54489.81;4974793;28;20487;-73
2023/03/20 04:13:53;;;;;;;45.25;19.02;;;;;;;-144.73;100.00;54481.59;4982989;28;20029;-73
2023/03/20 04:16:21;;;;;;;60.38;20.45;;;;;;;-144.73;100.00;54461.06;4990390;28;20018;-73
2023/03/20 04:18:47;;;;;;;49.90;19.10;;;;;;;-144.73;100.00;54444.66;4977227;28;20022;-73
2023/03/20 04:21:14;;;;;;;44.22;19.40;;;;;;;-144.73;100.00;54477.47;4985914;28;20030;-73
2023/03/20 04:23:40;;;;;;;51.25;20.35;;;;;;;-144.73;100.00;54510.31;4971590;28;20053;-73
2023/03/20 04:26:05;;;;;;;49.25;19.52;;;;;;;-144.73;100.00;54485.69;4975646;28;20116;-73
2023/03/20 04:28:31;;;;;;;58.67;21.17;;;;;;;-144.73;100.00;54456.97;4972320;28;20388;-73
2023/03/20 04:30:58;;;;;;;63.28;22.33;;;;;;;-144.73;100.00;54461.06;4971084;28;20046;-73
2023/03/20 04:33:25;;;;;;;53.17;19.80;;;;;;;-144.73;100.00;54463.13;4968877;28;20054;-73
2023/03/20 04:35:51;;;;;;;54.72;19.63;;;;;;;-144.73;100.00;54473.38;4995219;28;20022;-73
2023/03/20 04:38:17;;;;;;;55.88;20.92;;;;;;;-144.73;100.00;54493.91;4982629;28;20035;-73
2023/03/20 04:40:44;;;;;;;53.40;20.42;;;;;;;-144.73;100.00;54467.22;4991146;28;20030;-73
2023/03/20 04:43:09;;;;;;;62.22;22.75;;;;;;;-144.73;100.00;54491.84;4983769;28;20043;-72
2023/03/20 04:45:35;;;;;;;60.00;22.77;;;;;;;-144.73;100.00;54522.63;5001724;28;20494;-73
2023/03/20 04:48:00;;;;;;;57.13;21.55;;;;;;;-144.73;100.00;54485.69;4990489;28;20058;-74
2023/03/20 04:50:26;;;;;;;55.83;22.00;;;;;;;-144.73;100.00;54473.38;4990774;28;20041;-74
2023/03/20 04:52:52;;;;;;;60.88;23.00;;;;;;;-144.73;100.00;54452.84;4974950;28;20039;-73
2023/03/20 04:55:17;;;;;;;59.45;22.40;;;;;;;-144.73;100.00;54498.00;4985949;28;20109;-73
2023/03/20 04:57:43;;;;;;;61.45;20.42;;;;;;;-144.73;100.00;54477.47;4986160;28;20039;-74
2023/03/20 05:00:09;;;;;;;43.92;18.48;;;;;;;-144.73;100.00;54514.44;4973787;28;20045;-74
2023/03/20 05:02:35;;;;;;;39.60;17.90;;;;;;;-144.73;100.00;54436.44;4970708;28;20487;-73
2023/03/20 05:05:00;;;;;;;34.47;17.52;;;;;;;-144.73;100.00;54493.91;4976790;28;20130;-73
2023/03/20 05:07:26;;;;;;;32.90;16.33;;;;;;;-144.73;100.00;54452.84;4989063;28;20062;-73
2023/03/20 05:09:51;;;;;;;29.20;14.80;;;;;;;-144.73;100.00;54477.47;4973706;28;20033;-73
2023/03/20 05:12:16;;;;;;;33.28;16.83;;;;;;;-144.73;100.00;54483.66;4989887;28;20072;-73
2023/03/20 05:14:42;;;;;;;30.25;16.35;;;;;;;-144.73;100.00;54465.16;4988870;28;20075;-73
2023/03/20 05:17:07;;;;;;;33.58;17.98;;;;;;;-144.73;100.00;54463.13;4968164;28;20129;-73
2023/03/20 05:19:32;;;;;;;34.47;19.15;;;;;;;-144.73;100.00;54502.13;4973690;28;20018;-73
2023/03/20 05:21:58;;;;;;;33.30;17.98;;;;;;;-144.73;100.00;54481.59;4973138;28;20038;-73
2023/03/20 05:24:23;;;;;;;32.15;17.92;;;;;;;-144.73;100.00;54467.22;4977102;28;20029;-73
2023/03/20 05:26:49;;;;;;;35.78;17.75;;;;;;;-144.73;100.00;54477.47;4993988;28;20509;-74
2023/03/20 05:29:14;;;;;;;32.42;18.52;;;;;;;-144.73;100.00;54485.69;4967743;28;20038;-74
2023/03/20 05:31:40;;;;;;;33.40;18.13;;;;;;;-144.73;100.00;54475.44;4993271;28;20034;-74
2023/03/20 05:34:05;;;;;;;36.30;19.67;;;;;;;-144.73;100.00;54481.59;4959309;28;20042;-74
2023/03/20 05:36:30;;;;;;;36.53;18.50;;;;;;;-144.73;100.00;54502.13;4968473;28;20085;-73
2023/03/20 05:38:56;;;;;;;44.60;22.38;;;;;;;-144.73;100.00;54543.16;4975893;28;20034;-74
2023/03/20 05:41:22;;;;;;;43.65;22.33;;;;;;;-144.73;100.00;54477.47;4975938;28;20053;-73
2023/03/20 05:43:47;;;;;;;47.30;23.42;;;;;;;-144.73;100.00;54493.91;4975663;28;20045;-73
2023/03/20 05:46:12;;;;;;;49.25;23.90;;;;;;;-144.73;100.00;54459.00;4975875;28;20034;-74
2023/03/20 05:48:38;;;;;;;44.30;23.40;;;;;;;-144.73;100.00;54498.00;4975914;28;20035;-73
2023/03/20 05:51:04;;;;;;;45.30;22.17;;;;;;;-144.73;100.00;54452.84;4975754;28;20026;-73
2023/03/20 05:53:30;;;;;;;39.53;20.52;;;;;;;-144.73;100.00;54506.22;4975771;28;20490;-73
2023/03/20 05:55:55;;;;;;;42.08;21.70;;;;;;;-144.73;100.00;54452.84;4967999;28;20046;-73
2023/03/20 05:58:21;;;;;;;41.47;23.00;;;;;;;-144.73;100.00;54465.16;4975126;28;20038;-73
2023/03/20 06:00:46;;;;;;;49.97;25.42;;;;;;;-144.73;100.00;54477.47;4968623;28;20018;-73
2023/03/20 06:03:11;;;;;;;46.80;24.42;;;;;;;-144.73;100.00;54493.91;4965919;28;20053;-73
2023/03/20 06:05:37;;;;;;;53.63;24.50;;;;;;;-144.73;100.00;54452.84;4986760;28;20119;-73
2023/03/20 06:08:03;;;;;;;52.55;23.25;;;;;;;-144.73;100.00;54483.66;4992195;28;20042;-73
2023/03/20 06:10:29;;;;;;;38.10;19.70;;;;;;;-144.73;100.00;54489.81;4980524;28;20515;-73
2023/03/20 06:12:55;;;;;;;40.63;20.02;;;;;;;-144.73;100.00;54498.00;4970646;28;20062;-73
2023/03/20 06:15:21;;;;;;;41.25;19.05;;;;;;;-144.73;100.00;54489.81;4983444;28;20038;-73
2023/03/20 06:17:47;;;;;;;33.45;17.75;;;;;;;-144.73;100.00;54498.00;4969331;28;20031;-73
2023/03/20 06:20:12;;;;;;;33.30;17.30;;;;;;;-144.73;100.00;54530.84;4984739;28;20030;-73
2023/03/20 06:22:38;;;;;;;38.10;18.85;;;;;;;-144.73;100.00;54510.31;4968900;28;20038;-74
2023/03/20 06:25:04;;;;;;;34.60;17.40;;;;;;;-144.73;100.00;54469.28;4984458;28;20034;-72
2023/03/20 06:27:30;;;;;;;27.63;15.77;;;;;;;-144.73;100.00;54508.28;4992536;28;20149;-74
2023/03/20 06:29:56;;;;;;;30.98;15.63;;;;;;;-144.73;100.00;54473.38;4975306;28;20133;-74
2023/03/20 06:32:21;;;;;;;30.00;16.27;;;;;;;-144.73;100.00;54530.84;4982430;28;20046;-73
2023/03/20 06:34:47;;;;;;;29.77;15.82;;;;;;;-144.73;100.00;54448.75;4975673;28;20455;-73
2023/03/20 06:37:12;;;;;;;24.40;14.82;;;;;;;-144.73;100.00;54502.13;4974127;28;20042;-73
2023/03/20 06:39:38;;;;;;;37.53;15.68;;;;;;;-144.73;100.00;54485.69;4986114;28;20109;-73
2023/03/20 06:42:03;;;;;;;30.58;15.95;;;;;;;-144.73;100.00;54539.06;4973890;28;20124;-74
2023/03/20 06:44:29;;;;;;;31.23;15.55;;;;;;;-144.73;100.00;54473.38;4988000;28;20030;-74
2023/03/20 06:46:54;;;;;;;27.23;14.52;;;;;;;-144.73;100.00;54481.59;4965428;28;20038;-73
2023/03/20 06:49:20;;;;;;;26.67;13.70;;;;;;;-144.73;100.00;54524.69;4972425;28;20085;-73
2023/03/20 06:51:46;;;;;;;26.15;14.27;;;;;;;-144.73;100.00;54498.00;4973376;28;20057;-73
2023/03/20 06:54:12;;;;;;;26.88;12.35;;;;;;;-144.73;100.00;54541.13;4970193;28;20039;-73
2023/03/20 06:56:37;;;;;;;19.63;11.45;;;;;;;-144.73;100.00;54477.47;4991744;28;20030;-73
2023/03/20 06:59:02;;;;;;;22.33;12.25;;;;;;;-144.73;100.00;54485.69;4973757;28;20487;-74
2023/03/20 07:01:28;;;;;;;23.02;11.70;;;;;;;-144.73;100.00;54481.59;4988523;28;20039;-73
2023/03/20 07:03:53;;;;;;;23.98;11.80;;;;;;;-144.73;100.00;54510.31;4990537;28;20038;-72
2023/03/20 07:06:19;;;;;;;27.73;10.70;;;;;;;-144.73;100.00;54479.53;4973770;28;20022;-73
2023/03/20 07:08:44;;;;;;;15.95;9.88;;;;;;;-144.73;100.00;54477.47;4973645;28;20049;-68
2023/03/20 07:11:10;;;;;;;19.02;10.40;;;;;;;-144.73;100.00;54467.22;4992220;28;20030;-67
2023/03/20 07:13:36;;;;;;;21.75;10.15;;;;;;;-144.73;100.00;54493.91;4986937;28;20035;-69
2023/03/20 07:16:03;;;;;;;20.23;10.38;;;;;;;-144.73;100.00;54473.38;4963856;28;20038;-67
2023/03/20 07:18:28;;;;;;;16.35;9.82;;;;;;;-144.73;100.00;54477.47;4992120;28;20117;-68
2023/03/20 07:21:01;;;;;;;19.67;9.35;;;;;;;-144.73;100.00;54465.16;4975739;28;20113;-68
2023/03/20 07:23:27;;;;;;;21.67;9.95;;;;;;;-144.73;100.00;54477.47;4974924;28;20095;-68
2023/03/20 07:25:52;;;;;;;24.02;10.15;;;;;;;-144.73;100.00;54502.13;4975402;28;20045;-68
2023/03/20 07:28:17;;;;;;;23.40;10.10;;;;;;;-144.73;100.00;54473.38;4974976;28;20034;-68
2023/03/20 07:30:43;;;;;;;17.20;9.82;;;;;;;-144.73;100.00;54485.69;4981347;28;20026;-68
2023/03/20 07:33:08;;;;;;;19.45;10.07;;;;;;;-144.73;100.00;54469.28;4974988;28;20551;-69
2023/03/20 07:35:34;;;;;;;16.77;9.30;;;;;;;-144.73;100.00;54493.91;4967858;28;20049;-67
2023/03/20 07:37:59;;;;;;;19.25;9.65;;;;;;;-144.73;100.00;54461.06;4957740;28;20482;-67
2023/03/20 07:40:25;;;;;;;18.33;9.23;;;;;;;-144.73;100.00;54493.91;4987873;28;20027;-68
2023/03/20 07:42:51;;;;;;;24.20;9.38;;;;;;;-144.73;100.00;54477.47;4965548;28;20063;-68
2023/03/20 07:45:17;;;;;;;27.05;10.57;;;;;;;-144.73;100.00;54510.31;4972972;28;20023;-67
2023/03/20 07:47:43;;;;;;;19.17;9.88;;;;;;;-144.73;100.00;54506.22;4972628;28;20037;-68
2023/03/20 07:50:09;;;;;;;23.17;10.18;;;;;;;-144.73;100.00;54504.16;4986782;28;20026;-68
2023/03/20 07:52:35;;;;;;;24.08;10.18;;;;;;;-144.73;100.00;54520.59;4985594;28;20045;-68
2023/03/20 07:55:00;;;;;;;21.55;10.55;;;;;;;-144.73;99.85;54547.28;4973802;28;20497;-68
2023/03/20 07:57:25;;;;;;;22.15;9.85;;;;;;;-144.73;99.69;54510.31;4990177;28;20045;-68
2023/03/20 07:59:51;;;;;;;20.85;10.00;;;;;;;-144.73;98.97;54461.06;4974840;28;20034;-67
2023/03/20 08:02:17;;;;;;;21.13;9.63;;;;;;;-144.73;99.56;54477.47;4954759;28;20109;-68
2023/03/20 08:04:43;;;;;;;21.52;11.13;;;;;;;-144.73;99.83;54485.69;4954565;28;20034;-67
2023/03/20 08:07:09;;;;;;;20.25;10.98;;;;;;;-144.73;100.00;54465.16;4954760;28;20030;-67
2023/03/20 08:09:35;;;;;;;18.65;9.88;;;;;;;-144.73;100.00;54498.00;4954476;28;20026;-67
2023/03/20 08:12:01;;;;;;;17.17;9.40;;;;;;;-144.73;100.00;54518.53;4972531;28;20398;-67
2023/03/20 08:14:26;;;;;;;19.40;9.57;;;;;;;-144.73;100.00;54473.38;4976326;28;20034;-67
2023/03/20 08:16:51;;;;;;;16.98;9.95;;;;;;;-144.73;100.00;54473.38;4973374;28;20034;-67
2023/03/20 08:19:17;;;;;;;21.45;8.85;;;;;;;-144.73;99.40;54508.28;4980865;28;20046;-67
2023/03/20 08:21:42;;;;;;;21.52;9.65;;;;;;;-144.73;99.50;54514.44;4958091;28;20030;-67
2023/03/20 08:24:08;;;;;;;17.02;9.32;;;;;;;-144.73;99.50;54498.00;4982225;28;20049;-67
2023/03/20 08:26:33;;;;;;;14.93;8.27;;;;;;;-144.73;98.44;54485.69;4975626;28;20061;-68
2023/03/20 08:28:58;;;;;;;16.30;8.55;;;;;;;-144.73;98.64;54506.22;4960971;28;20039;-67
2023/03/20 08:31:24;;;;;;;20.38;9.35;;;;;;;-144.73;99.14;54487.75;4971649;28;20527;-68
2023/03/20 08:33:50;;;;;;;16.15;8.85;;;;;;;-144.73;99.24;54461.06;4956880;28;20039;-68
2023/03/20 08:36:18;;;;;;;23.23;8.73;;;;;;;-144.73;99.25;54567.81;4968098;28;20031;-68
2023/03/20 08:38:43;;;;;;;23.05;8.35;;;;;;;-144.73;99.22;54514.44;4972650;28;20507;-68
2023/03/20 08:41:09;;;;;;;19.60;8.18;;;;;;;-144.73;99.70;54465.16;4964451;28;20081;-68
2023/03/20 08:43:35;;;;;;;18.27;7.85;;;;;;;-144.73;99.09;54487.75;4965764;28;20038;-68
2023/03/20 08:46:00;;;;;;;19.90;8.77;;;;;;;-144.73;100.00;54485.69;4971307;28;20030;-68
2023/03/20 08:48:26;;;;;;;19.17;7.88;;;;;;;-144.73;100.00;54502.13;4986944;28;20105;-68
2023/03/20 08:50:51;;;;;;;14.35;7.60;;;;;;;-144.73;99.55;54469.28;4972006;28;20117;-68
2023/03/20 08:53:17;;;;;;;18.05;7.75;;;;;;;-144.73;99.23;54498.00;4972320;28;20069;-68
2023/03/20 08:55:49;;;;;;;14.20;8.27;;;;;;;-144.73;99.81;54485.69;4968627;28;20038;-68
2023/03/20 08:58:15;;;;;;;16.13;8.02;;;;;;;-144.73;99.14;54506.22;4952882;28;20543;-68
2023/03/20 09:00:41;;;;;;;16.20;8.63;;;;;;;-144.73;98.96;54477.47;4960006;28;20030;-68
2023/03/20 09:03:06;;;;;;;16.60;9.23;;;;;;;-144.73;99.29;54526.75;4957833;28;20045;-68
2023/03/20 09:05:35;;;;;;;24.25;9.70;;;;;;;-144.73;99.22;54510.31;4953616;28;20105;-68
2023/03/20 09:08:00;;;;;;;15.52;8.98;;;;;;;-144.73;99.22;54481.59;4970724;28;20039;-68
2023/03/20 09:10:26;;;;;;;16.98;9.30;;;;;;;-144.73;100.00;54493.91;4952864;28;20640;-67
2023/03/20 09:12:51;;;;;;;20.45;10.88;;;;;;;-144.73;99.60;54518.53;4979676;28;20038;-68
2023/03/20 09:15:16;;;;;;;20.85;10.35;;;;;;;-144.73;100.00;54448.75;4972397;28;20030;-67
2023/03/20 09:17:42;;;;;;;22.30;9.95;;;;;;;-144.73;100.00;54489.81;4989078;28;20043;-67
2023/03/20 09:20:08;;;;;;;30.30;12.52;;;;;;;-144.73;100.00;54452.84;4956816;28;20094;-67
2023/03/20 09:22:33;;;;;;;19.60;9.52;;;;;;;-144.73;100.00;54477.47;4969989;28;20039;-67
2023/03/20 09:24:58;;;;;;;24.35;9.70;;;;;;;-144.73;100.00;54473.38;4989042;28;20034;-67
2023/03/20 09:27:24;;;;;;;19.77;10.25;;;;;;;-144.73;98.76;54456.97;4977289;28;20027;-68
2023/03/20 09:29:49;;;;;;;14.98;9.02;;;;;;;-144.73;98.30;54506.22;4969627;28;20455;-67
2023/03/20 09:32:14;;;;;;;20.30;8.82;;;;;;;-144.73;97.60;54485.69;4955379;28;20031;-67
2023/03/20 09:34:40;;;;;;;13.00;8.52;;;;;;;-144.73;97.56;54498.00;4985367;28;20495;-67
2023/03/20 09:37:06;;;;;;;15.25;8.25;;;;;;;-144.73;97.35;54512.38;4958481;28;20023;-69
2023/03/20 09:39:32;;;;;;;21.05;8.65;;;;;;;-144.73;97.30;54522.63;4964500;28;20046;-68
2023/03/20 09:42:07;;;;;;;18.55;8.52;;;;;;;-144.73;96.35;54522.63;4974122;28;20019;-68
2023/03/20 09:44:48;;;;;;;20.58;8.38;;;;;;;-144.73;96.33;54477.47;4970879;28;20039;-68
2023/03/20 09:47:39;;;;;;;19.70;8.48;;;;;;;-144.73;95.65;54516.47;4984648;28;20022;-69
2023/03/20 09:50:10;;;;;;;16.58;7.95;;;;;;;-144.73;95.90;54518.53;4962163;28;20026;-68
2023/03/20 09:52:52;;;;;;;15.60;8.40;;;;;;;-144.73;95.86;54481.59;4971089;28;20539;-68
2023/03/20 09:55:22;;;;;;;21.70;8.10;;;;;;;-144.73;94.90;54539.06;4968980;28;20282;-68
2023/03/20 09:58:02;;;;;;;17.25;9.43;;;;;;;-144.73;95.24;54481.59;4963511;28;20030;-68
2023/03/20 10:00:31;;;;;;;15.25;8.57;;;;;;;-144.73;95.02;54508.28;4987357;28;20033;-68
2023/03/20 10:03:04;;;;;;;14.73;8.98;;;;;;;-144.73;95.40;54456.97;4976376;28;20058;-67
2023/03/20 10:05:45;;;;;;;18.80;10.00;;;;;;;-144.73;95.13;54465.16;4984262;28;20030;-67
2023/03/20 10:08:15;;;;;;;20.90;8.73;;;;;;;-144.73;95.14;54448.75;4987553;28;20058;-67
2023/03/20 10:11:14;;;;;;;25.33;10.70;;;;;;;-144.73;95.11;54498.00;4971892;28;20031;-67
2023/03/20 10:14:06;;;;;;;25.92;10.48;;;;;;;-144.73;93.96;54518.53;4951800;28;20062;-67
2023/03/20 10:16:50;;;;;;;20.30;10.38;;;;;;;-144.73;94.33;54473.38;4971948;28;20030;-67
2023/03/20 10:19:22;;;;;;;18.23;11.05;;;;;;;-144.73;94.03;54489.81;4986109;28;20488;-67
2023/03/20 10:21:54;;;;;;;22.83;10.98;;;;;;;-144.73;93.50;54498.00;4989164;28;20056;-67
2023/03/20 10:24:36;;;;;;;22.48;11.00;;;;;;;-144.73;92.92;54481.59;4988477;28;20046;-67
2023/03/20 10:27:09;;;;;;;20.92;11.05;;;;;;;-144.73;92.71;54510.31;4969506;28;20107;-68
2023/03/20 10:29:53;;;;;;;30.02;11.50;;;;;;;-144.73;93.05;54512.38;4980015;28;20014;-68
2023/03/20 10:32:23;;;;;;;23.13;11.55;;;;;;;-144.73;92.64;54456.97;4968031;28;20039;-67
2023/03/20 10:35:20;;;;;;;22.40;10.30;;;;;;;-144.73;92.29;54473.38;4974098;28;20065;-67
2023/03/20 10:38:04;;;;;;;26.15;11.07;;;;;;;-144.73;92.46;54530.84;4970974;28;20081;-67
2023/03/20 10:40:37;;;;;;;20.73;9.80;;;;;;;-144.73;92.57;54502.13;4952184;28;20034;-67
2023/03/20 10:43:14;;;;;;;20.23;10.70;;;;;;;-144.73;92.50;54502.13;4951604;28;20030;-68
2023/03/20 10:46:03;;;;;;;23.25;11.57;;;;;;;-144.73;91.43;54493.91;4959348;28;20018;-68
2023/03/20 10:48:40;;;;;;;28.08;10.43;;;;;;;-144.73;91.25;54444.66;4967490;28;20041;-69
2023/03/20 10:51:13;;;;;;;22.75;10.70;;;;;;;-144.73;91.53;54530.84;4980221;28;20050;-69
2023/03/20 10:53:52;;;;;;;23.42;10.15;;;;;;;-144.73;90.55;54469.28;4974747;28;20027;-68
2023/03/20 10:56:31;;;;;;;23.63;10.55;;;;;;;-144.73;90.13;54518.53;4970122;28;20033;-68
2023/03/20 10:59:03;;;;;;;22.38;10.32;;;;;;;-144.73;90.12;54473.38;4954598;28;20042;-68
2023/03/20 11:01:28;;;;;;;;;;;;;;;-144.73;89.56;54477.47;4963476;28;20036;-68
2023/03/20 11:03:54;;;;;;;18.13;9.00;;;;;;;-144.73;89.06;54481.59;4974659;28;19913;-68
2023/03/20 11:06:27;;;;;;;22.73;10.23;;;;;;;-144.73;88.34;54485.69;4986315;28;20395;-68